Time;durP1;ratioP1;P1;durP2;ratioP2;P2;SDS_P1;SDS_P2;PMS_P1;PMS_P2;Temp;Humidity;BMP_temperature;BMP_pressure;BME280_temperature;BME280_humidity;BME280_pressure;Samples;Min_cycle;Max_cycle;Signal;HPM_P1;HPM_P2
2021/07/11 00:02:13;;;;;;;7.50;4.15;;;20.90;73.20;;;;;;4939168;29;20023;-83
2021/07/11 00:04:39;;;;;;;9.88;5.18;;;20.90;73.30;;;;;;4938532;29;20031;-83
2021/07/11 00:07:04;;;;;;;10.73;4.57;;;20.90;73.40;;;;;;4956493;29;20531;-83
2021/07/11 00:09:30;;;;;;;8.57;4.97;;;20.90;73.50;;;;;;4956459;29;20028;-83
2021/07/11 00:11:56;;;;;;;9.05;4.80;;;20.90;73.60;;;;;;4938162;29;20456;-82
2021/07/11 00:14:21;;;;;;;10.40;4.25;;;20.90;73.60;;;;;;4938718;29;20057;-83
2021/07/11 00:16:47;;;;;;;9.07;4.80;;;20.90;73.80;;;;;;4955198;29;20027;-83
2021/07/11 00:19:13;;;;;;;10.45;4.78;;;20.90;73.90;;;;;;4938771;29;20023;-83
2021/07/11 00:21:38;;;;;;;8.55;5.05;;;20.90;73.90;;;;;;4938260;29;20019;-83
2021/07/11 00:24:04;;;;;;;8.85;5.07;;;20.90;74.00;;;;;;4938770;29;20341;-83
2021/07/11 00:26:30;;;;;;;8.13;4.30;;;20.90;74.10;;;;;;4955744;29;20464;-83
2021/07/11 00:28:56;;;;;;;9.68;4.95;;;20.90;74.20;;;;;;4954980;29;20456;-83
2021/07/11 00:31:22;;;;;;;9.30;4.88;;;20.80;74.20;;;;;;4955520;29;20078;-83
2021/07/11 00:33:48;;;;;;;9.52;5.00;;;20.80;74.30;;;;;;4937732;29;20475;-84
2021/07/11 00:36:14;;;;;;;10.73;4.93;;;20.90;74.40;;;;;;4938457;29;20032;-82
2021/07/11 00:38:40;;;;;;;8.90;5.05;;;20.80;74.40;;;;;;4937978;29;20030;-82
2021/07/11 00:41:06;;;;;;;8.43;4.93;;;20.80;74.50;;;;;;4938794;29;20026;-83
2021/07/11 00:43:31;;;;;;;9.95;5.18;;;20.80;74.50;;;;;;4938299;29;20510;-83
2021/07/11 00:46:00;;;;;;;12.25;5.20;;;20.80;74.60;;;;;;4937693;29;20126;-81
2021/07/11 00:48:26;;;;;;;8.70;4.95;;;20.80;74.90;;;;;;4938238;29;20027;-81
2021/07/11 00:50:51;;;;;;;8.10;4.93;;;20.80;75.40;;;;;;4937514;29;20019;-80
2021/07/11 00:53:17;;;;;;;10.07;5.10;;;20.70;75.70;;;;;;4938199;29;20152;-82
2021/07/11 00:55:42;;;;;;;9.00;5.10;;;20.70;76.00;;;;;;4932934;29;20039;-82
2021/07/11 00:58:08;;;;;;;8.98;4.75;;;20.60;76.30;;;;;;4918871;29;20027;-83
2021/07/11 01:00:34;;;;;;;8.98;5.43;;;20.60;76.70;;;;;;4936117;29;20027;-83
2021/07/11 01:03:17;;;;;;;10.35;5.22;;;20.50;76.90;;;;;;4935491;29;20365;-83
2021/07/11 01:05:43;;;;;;;9.90;5.25;;;20.50;77.20;;;;;;4918108;29;20168;-82
2021/07/11 01:08:13;;;;;;;10.20;5.03;;;20.50;77.30;;;;;;4936195;29;20028;-82
2021/07/11 01:10:47;;;;;;;10.18;5.68;;;20.50;77.50;;;;;;4918837;29;20131;-83
2021/07/11 01:13:15;;;;;;;10.02;5.18;;;20.50;77.90;;;;;;4919156;29;20031;-82
2021/07/11 01:15:46;;;;;;;11.15;5.80;;;20.50;78.00;;;;;;4918422;29;20103;-81
2021/07/11 01:18:13;;;;;;;10.10;5.28;;;20.50;78.10;;;;;;4918664;29;20047;-82
2021/07/11 01:20:49;;;;;;;10.45;5.32;;;20.50;78.20;;;;;;4935625;29;20030;-82
2021/07/11 01:23:38;;;;;;;8.50;5.15;;;20.50;78.90;;;;;;4918881;29;20028;-83
2021/07/11 01:26:08;;;;;;;10.95;5.30;;;20.50;78.50;;;;;;4917807;29;20487;-83
2021/07/11 01:28:34;;;;;;;11.60;5.35;;;20.50;78.30;;;;;;4918621;29;20087;-83
2021/07/11 01:31:00;;;;;;;12.15;6.05;;;20.50;78.40;;;;;;4935053;29;20028;-82
2021/07/11 01:33:30;;;;;;;11.50;5.72;;;20.50;78.50;;;;;;4918269;29;20437;-82
2021/07/11 01:35:56;;;;;;;10.10;5.10;;;20.50;78.80;;;;;;4917674;29;20470;-82
2021/07/11 01:38:22;;;;;;;8.95;5.22;;;20.50;78.70;;;;;;4935436;29;20028;-82
2021/07/11 01:40:49;;;;;;;10.07;5.55;;;20.50;78.80;;;;;;4917612;29;20086;-82
2021/07/11 01:43:20;;;;;;;8.52;4.80;;;20.50;78.90;;;;;;4918157;29;20039;-83
2021/07/11 01:45:51;;;;;;;10.30;5.75;;;20.50;79.00;;;;;;4935125;29;20032;-82
2021/07/11 01:48:18;;;;;;;10.20;5.68;;;20.50;79.10;;;;;;4918346;29;20039;-82
2021/07/11 01:50:47;;;;;;;12.13;5.97;;;20.50;79.20;;;;;;4917648;29;20055;-82
2021/07/11 01:53:13;;;;;;;11.20;5.35;;;20.50;79.10;;;;;;4918136;29;20028;-83
2021/07/11 01:55:38;;;;;;;10.00;5.93;;;20.50;79.10;;;;;;4917868;29;20491;-82
2021/07/11 01:58:04;;;;;;;11.93;6.53;;;20.50;79.20;;;;;;4917532;29;20035;-83
2021/07/11 02:00:30;;;;;;;11.98;5.65;;;20.50;79.30;;;;;;4918010;29;20030;-83
2021/07/11 02:02:56;;;;;;;9.43;5.47;;;20.60;79.40;;;;;;4934728;29;20020;-82
2021/07/11 02:05:22;;;;;;;10.15;5.97;;;20.60;79.40;;;;;;4917958;29;20034;-81
2021/07/11 02:07:47;;;;;;;9.70;5.70;;;20.50;80.10;;;;;;4917296;29;20106;-81
2021/07/11 02:10:16;;;;;;;10.95;6.38;;;20.50;79.60;;;;;;4917176;29;20027;-82
2021/07/11 02:12:52;;;;;;;12.23;6.03;;;20.50;79.60;;;;;;4934877;29;20035;-82
2021/07/11 02:15:18;;;;;;;10.00;5.95;;;20.50;79.70;;;;;;4917907;29;20028;-82
2021/07/11 02:17:52;;;;;;;12.32;5.45;;;20.50;79.70;;;;;;4934980;29;20349;-83
2021/07/11 02:20:19;;;;;;;11.38;5.57;;;20.50;79.90;;;;;;4934927;29;20063;-83
2021/07/11 02:22:47;;;;;;;11.15;6.30;;;20.50;80.00;;;;;;4917667;29;20460;-82
2021/07/11 02:25:17;;;;;;;12.43;6.88;;;20.50;80.20;;;;;;4917656;29;20023;-82
2021/07/11 02:27:47;;;;;;;11.30;6.22;;;20.50;80.50;;;;;;4914216;29;20496;-82
2021/07/11 02:30:21;;;;;;;12.02;6.47;;;20.40;80.60;;;;;;4914602;29;20064;-82
2021/07/11 02:32:51;;;;;;;10.55;6.20;;;20.40;80.70;;;;;;4914990;29;20437;-82
2021/07/11 02:35:23;;;;;;;11.63;6.30;;;20.40;80.80;;;;;;4914209;29;20036;-83
2021/07/11 02:37:50;;;;;;;11.23;6.20;;;20.40;80.90;;;;;;4915120;29;20489;-82
2021/07/11 02:40:18;;;;;;;11.82;5.90;;;20.40;81.20;;;;;;4914794;29;20016;-83
2021/07/11 02:42:45;;;;;;;11.90;6.15;;;20.30;81.30;;;;;;4914869;29;20032;-82
2021/07/11 02:45:12;;;;;;;10.23;6.13;;;20.30;81.60;;;;;;4915595;29;20032;-82
2021/07/11 02:47:41;;;;;;;10.95;6.38;;;20.30;81.90;;;;;;4914675;29;20035;-83
2021/07/11 02:50:11;;;;;;;12.68;6.65;;;20.20;82.30;;;;;;4914968;29;20035;-83
2021/07/11 02:52:36;;;;;;;12.82;6.82;;;20.10;82.70;;;;;;4914400;29;20028;-82
2021/07/11 02:55:11;;;;;;;14.90;7.05;;;20.10;83.10;;;;;;4913557;29;20441;-82
2021/07/11 02:57:38;;;;;;;12.40;7.13;;;20.00;83.60;;;;;;4931464;29;20115;-82
2021/07/11 03:00:09;;;;;;;12.50;7.05;;;19.90;83.70;;;;;;4933917;29;20034;-82
2021/07/11 03:02:36;;;;;;;14.82;7.35;;;19.80;84.00;;;;;;4932370;29;20039;-82
2021/07/11 03:05:03;;;;;;;12.02;6.65;;;19.80;84.90;;;;;;4933694;29;20028;-82
2021/07/11 03:07:30;;;;;;;12.25;7.07;;;19.70;84.60;;;;;;4933107;29;20127;-83
2021/07/11 03:09:56;;;;;;;12.70;7.18;;;19.70;85.10;;;;;;4932595;29;20379;-83
2021/07/11 03:12:22;;;;;;;12.45;8.05;;;19.70;85.30;;;;;;4934558;29;20095;-82
2021/07/11 03:14:50;;;;;;;15.43;7.70;;;19.60;85.40;;;;;;4934161;29;20044;-82
2021/07/11 03:17:20;;;;;;;11.77;7.95;;;19.60;85.50;;;;;;4934838;29;20062;-83
2021/07/11 03:19:49;;;;;;;13.70;7.80;;;19.60;85.70;;;;;;4934363;29;20028;-83
2021/07/11 03:22:20;;;;;;;12.35;7.55;;;19.60;85.80;;;;;;4936227;29;20019;-82
2021/07/11 03:24:46;;;;;;;13.95;7.72;;;19.60;85.90;;;;;;4936772;29;20067;-83
2021/07/11 03:27:12;;;;;;;14.98;8.10;;;19.60;86.00;;;;;;4935799;29;20094;-83
2021/07/11 03:29:53;;;;;;;15.10;7.97;;;19.60;86.20;;;;;;4936537;29;20056;-81
2021/07/11 03:32:20;;;;;;;13.70;8.30;;;19.60;86.80;;;;;;4937984;29;20019;-82
2021/07/11 03:34:48;;;;;;;15.82;9.10;;;19.50;86.80;;;;;;4937333;29;20295;-82
2021/07/11 03:37:15;;;;;;;16.10;8.80;;;19.50;87.10;;;;;;4936786;29;20392;-80
2021/07/11 03:39:46;;;;;;;15.57;8.70;;;19.50;87.30;;;;;;4922960;29;20051;-81
2021/07/11 03:42:13;;;;;;;15.75;8.48;;;19.50;87.70;;;;;;4916442;29;20449;-80
2021/07/11 03:44:42;;;;;;;15.70;8.88;;;19.50;87.70;;;;;;4918111;29;20024;-81
2021/07/11 03:47:10;;;;;;;15.40;8.20;;;19.40;87.90;;;;;;4916662;29;20095;-82
2021/07/11 03:49:38;;;;;;;14.75;7.72;;;19.40;88.20;;;;;;4917278;29;20036;-81
2021/07/11 03:52:06;;;;;;;14.45;8.57;;;19.40;88.30;;;;;;4916391;29;20461;-81
2021/07/11 03:54:39;;;;;;;14.13;8.02;;;19.40;88.50;;;;;;4918332;29;20087;-81
2021/07/11 03:57:06;;;;;;;17.00;9.07;;;19.40;88.70;;;;;;4916428;29;20028;-81
2021/07/11 03:59:33;;;;;;;16.30;9.18;;;19.40;88.70;;;;;;4917088;29;20028;-81
2021/07/11 04:02:03;;;;;;;16.58;9.25;;;19.40;88.80;;;;;;4916362;29;20035;-81
2021/07/11 04:04:30;;;;;;;16.63;8.68;;;19.30;88.80;;;;;;4916985;29;20342;-81
2021/07/11 04:06:57;;;;;;;15.50;8.82;;;19.40;88.80;;;;;;4917292;29;20028;-80
2021/07/11 04:09:25;;;;;;;17.92;8.75;;;19.40;88.90;;;;;;4917861;29;20128;-81
2021/07/11 04:11:51;;;;;;;15.02;8.75;;;19.40;88.80;;;;;;4916680;29;20461;-81
2021/07/11 04:14:18;;;;;;;16.20;7.93;;;19.40;88.90;;;;;;4916143;29;20480;-81
2021/07/11 04:16:49;;;;;;;14.60;7.75;;;19.40;88.90;;;;;;4916316;29;20024;-81
2021/07/11 04:19:25;;;;;;;14.48;7.72;;;19.40;89.10;;;;;;4916057;29;20528;-83
2021/07/11 04:21:53;;;;;;;14.25;8.40;;;19.30;89.20;;;;;;4916733;29;20024;-81
2021/07/11 04:24:21;;;;;;;13.88;8.50;;;19.30;89.20;;;;;;4917327;29;20556;-82
2021/07/11 04:26:48;;;;;;;15.18;8.48;;;19.30;89.30;;;;;;4916315;29;20052;-81
2021/07/11 04:29:15;;;;;;;14.27;8.35;;;19.30;89.30;;;;;;4915895;29;20024;-81
2021/07/11 04:31:42;;;;;;;14.57;8.98;;;19.30;89.40;;;;;;4917872;29;20024;-81
2021/07/11 04:34:35;;;;;;;17.50;9.05;;;19.40;89.40;;;;;;4916646;29;20031;-81
2021/07/11 04:37:03;;;;;;;15.68;8.80;;;19.40;89.70;;;;;;4915692;29;20024;-81
2021/07/11 04:39:29;;;;;;;15.82;8.77;;;19.40;89.40;;;;;;4916275;29;20020;-81
2021/07/11 04:41:56;;;;;;;16.33;8.88;;;19.40;89.50;;;;;;4916493;29;20058;-81
2021/07/11 04:44:23;;;;;;;15.43;8.63;;;19.40;89.60;;;;;;4917475;29;20071;-81
2021/07/11 04:46:49;;;;;;;18.10;10.20;;;19.30;89.70;;;;;;4916159;29;20024;-81
2021/07/11 04:49:14;;;;;;;19.30;9.73;;;19.40;89.80;;;;;;4915615;29;20327;-82
2021/07/11 04:51:40;;;;;;;16.65;10.25;;;19.40;89.80;;;;;;4916288;29;20028;-82
2021/07/11 04:54:08;;;;;;;20.20;9.32;;;19.40;89.70;;;;;;4915664;29;20194;-83
2021/07/11 04:56:35;;;;;;;17.52;9.25;;;19.40;89.70;;;;;;4917742;29;20354;-82
2021/07/11 04:59:01;;;;;;;18.30;9.93;;;19.40;89.80;;;;;;4915696;29;20020;-81
2021/07/11 05:01:27;;;;;;;17.08;9.50;;;19.40;89.80;;;;;;4917419;29;20031;-82
2021/07/11 05:03:53;;;;;;;16.55;9.50;;;19.40;89.90;;;;;;4915878;29;20027;-82
2021/07/11 05:06:19;;;;;;;17.63;10.40;;;19.40;89.90;;;;;;4916698;29;20036;-82
2021/07/11 05:08:44;;;;;;;14.20;8.95;;;19.40;89.90;;;;;;4917048;29;20028;-81
2021/07/11 05:11:10;;;;;;;17.20;10.32;;;19.40;89.80;;;;;;4916477;29;20028;-82
2021/07/11 05:13:36;;;;;;;15.57;9.38;;;19.40;89.80;;;;;;4917041;29;20100;-82
2021/07/11 05:16:03;;;;;;;15.35;9.90;;;19.40;89.80;;;;;;4914913;29;20132;-82
2021/07/11 05:18:29;;;;;;;18.00;9.77;;;19.40;89.90;;;;;;4916875;29;20020;-82
2021/07/11 05:20:54;;;;;;;17.55;9.77;;;19.40;89.90;;;;;;4917075;29;20032;-82
2021/07/11 05:23:20;;;;;;;16.25;9.73;;;19.40;89.90;;;;;;4914468;29;20039;-82
2021/07/11 05:25:46;;;;;;;16.20;9.75;;;19.50;90.00;;;;;;4916655;29;20040;-82
2021/07/11 05:28:13;;;;;;;17.00;9.85;;;19.50;90.00;;;;;;4935197;29;20034;-82
2021/07/11 05:30:38;;;;;;;17.55;9.95;;;19.50;90.00;;;;;;4918448;29;20380;-82
2021/07/11 05:33:04;;;;;;;18.40;9.13;;;19.50;90.10;;;;;;4917931;29;20035;-82
2021/07/11 05:35:30;;;;;;;15.38;8.40;;;19.60;90.10;;;;;;4917998;29;20062;-82
2021/07/11 05:37:55;;;;;;;16.70;8.55;;;19.50;90.10;;;;;;4917749;29;20031;-82
2021/07/11 05:40:21;;;;;;;16.52;9.73;;;19.50;90.10;;;;;;4934823;29;20114;-82
2021/07/11 05:42:48;;;;;;;17.67;10.27;;;19.50;90.20;;;;;;4918158;29;20026;-82
2021/07/11 05:45:14;;;;;;;19.10;10.68;;;19.60;90.20;;;;;;4933957;29;20059;-82
2021/07/11 05:47:40;;;;;;;15.57;9.48;;;19.60;90.20;;;;;;4935237;29;20078;-82
2021/07/11 05:50:07;;;;;;;16.42;10.35;;;19.50;90.20;;;;;;4934753;29;20433;-82
2021/07/11 05:52:33;;;;;;;15.93;9.75;;;19.50;90.30;;;;;;4918123;29;20072;-82
2021/07/11 05:54:59;;;;;;;16.60;9.73;;;19.60;90.30;;;;;;4935167;29;20035;-82
2021/07/11 05:57:26;;;;;;;17.75;9.73;;;19.60;90.40;;;;;;4917574;29;20075;-82
2021/07/11 05:59:51;;;;;;;16.08;9.55;;;19.50;90.40;;;;;;4918066;29;20020;-83
2021/07/11 06:02:17;;;;;;;15.32;9.27;;;19.50;90.40;;;;;;4917451;29;20094;-82
2021/07/11 06:04:43;;;;;;;17.17;10.18;;;19.50;90.50;;;;;;4935047;29;20119;-82
2021/07/11 06:07:09;;;;;;;18.08;10.45;;;19.50;90.60;;;;;;4917301;29;20028;-82
2021/07/11 06:09:35;;;;;;;26.02;13.85;;;19.40;90.60;;;;;;4917913;29;20081;-82
2021/07/11 06:12:01;;;;;;;18.38;11.63;;;19.40;90.70;;;;;;4917882;29;20024;-82
2021/07/11 06:14:27;;;;;;;18.42;11.35;;;19.50;90.70;;;;;;4934589;29;20039;-82
2021/07/11 06:16:52;;;;;;;18.98;10.77;;;19.50;90.70;;;;;;4917791;29;20032;-82
2021/07/11 06:19:18;;;;;;;20.33;11.00;;;19.50;90.70;;;;;;4934255;29;20118;-82
2021/07/11 06:21:44;;;;;;;20.38;11.32;;;19.50;90.70;;;;;;4917867;29;20016;-82
2021/07/11 06:24:10;;;;;;;18.70;10.13;;;19.40;90.80;;;;;;4934108;29;20045;-82
2021/07/11 06:26:36;;;;;;;18.17;10.57;;;19.40;90.80;;;;;;4934916;29;20051;-82
2021/07/11 06:29:02;;;;;;;19.60;11.02;;;19.50;90.80;;;;;;4917717;29;20031;-82
2021/07/11 06:31:28;;;;;;;19.70;11.40;;;19.50;90.90;;;;;;4934256;29;20023;-83
2021/07/11 06:33:54;;;;;;;24.65;11.82;;;19.50;90.90;;;;;;4917782;29;20436;-82
2021/07/11 06:36:19;;;;;;;21.52;11.10;;;19.40;91.00;;;;;;4916977;29;20070;-82
2021/07/11 06:38:45;;;;;;;20.27;11.27;;;19.40;91.00;;;;;;4917994;29;20046;-82
2021/07/11 06:41:11;;;;;;;19.27;11.52;;;19.50;91.10;;;;;;4916990;29;20078;-81
2021/07/11 06:43:36;;;;;;;21.45;11.77;;;19.50;91.10;;;;;;4917627;29;20079;-82
2021/07/11 06:46:02;;;;;;;22.23;10.88;;;19.50;91.10;;;;;;4917487;29;20039;-82
2021/07/11 06:48:28;;;;;;;19.75;11.10;;;19.50;91.10;;;;;;4934031;29;20034;-81
2021/07/11 06:50:55;;;;;;;21.23;11.73;;;19.50;91.10;;;;;;4917574;29;20456;-81
2021/07/11 06:53:20;;;;;;;22.13;12.55;;;19.60;91.20;;;;;;4916931;29;20039;-82
2021/07/11 06:55:46;;;;;;;20.73;11.85;;;19.60;91.10;;;;;;4918116;29;20099;-82
2021/07/11 06:58:12;;;;;;;20.38;11.35;;;19.60;91.00;;;;;;4920775;29;20035;-81
2021/07/11 07:00:38;;;;;;;21.83;12.18;;;19.60;90.90;;;;;;4921169;29;20042;-82
2021/07/11 07:03:03;;;;;;;21.17;11.60;;;19.60;90.90;;;;;;4938210;29;20487;-82
2021/07/11 07:05:29;;;;;;;20.48;10.30;;;19.60;90.90;;;;;;4920506;29;20065;-82
2021/07/11 07:07:55;;;;;;;21.55;12.63;;;19.60;90.90;;;;;;4921161;29;20020;-81
2021/07/11 07:10:23;;;;;;;19.58;12.50;;;19.60;90.90;;;;;;4937504;29;20106;-82
2021/07/11 07:12:49;;;;;;;18.88;11.27;;;19.60;90.90;;;;;;4921098;29;20032;-81
2021/07/11 07:15:15;;;;;;;21.95;11.68;;;19.60;91.00;;;;;;4920332;29;20119;-82
2021/07/11 07:17:42;;;;;;;23.23;12.05;;;19.70;90.90;;;;;;4938080;29;20028;-81
2021/07/11 07:20:09;;;;;;;19.80;11.60;;;19.70;90.90;;;;;;4920523;29;20498;-81
2021/07/11 07:22:36;;;;;;;21.70;11.77;;;19.70;90.90;;;;;;4920566;29;20058;-82
2021/07/11 07:25:10;;;;;;;21.00;11.93;;;19.70;90.90;;;;;;4937844;29;20092;-82
2021/07/11 07:27:36;;;;;;;17.42;10.93;;;19.80;90.90;;;;;;4920623;29;20055;-82
2021/07/11 07:30:02;;;;;;;19.50;10.77;;;19.80;90.80;;;;;;4920851;29;20024;-82
2021/07/11 07:32:29;;;;;;;22.60;11.40;;;19.80;90.70;;;;;;4937500;29;20325;-82
2021/07/11 07:34:54;;;;;;;22.98;12.25;;;19.90;90.50;;;;;;4937721;29;20031;-82
2021/07/11 07:37:20;;;;;;;19.05;11.15;;;20.00;90.40;;;;;;4919996;29;20067;-82
2021/07/11 07:39:46;;;;;;;19.70;11.13;;;20.10;90.20;;;;;;4920606;29;20027;-82
2021/07/11 07:42:11;;;;;;;21.10;12.25;;;20.30;90.00;;;;;;4919737;29;20043;-82
2021/07/11 07:44:37;;;;;;;23.10;11.63;;;20.50;89.70;;;;;;4937530;29;20031;-82
2021/07/11 07:47:03;;;;;;;19.33;11.50;;;20.50;89.20;;;;;;4937275;29;20027;-82
2021/07/11 07:49:28;;;;;;;18.63;10.90;;;20.60;88.90;;;;;;4937024;29;20288;-82
2021/07/11 07:51:54;;;;;;;19.35;10.98;;;20.70;88.60;;;;;;4920385;29;20052;-82
2021/07/11 07:54:20;;;;;;;20.83;11.48;;;20.70;88.20;;;;;;4919783;29;20027;-81
2021/07/11 07:56:45;;;;;;;18.77;11.43;;;20.80;88.00;;;;;;4923482;29;20042;-82
2021/07/11 07:59:11;;;;;;;18.17;10.57;;;20.80;87.70;;;;;;4923918;29;20495;-81
2021/07/11 08:01:38;;;;;;;21.38;10.77;;;20.90;87.70;;;;;;4923876;29;20028;-81
2021/07/11 08:04:05;;;;;;;18.25;10.93;;;20.90;87.70;;;;;;4920770;29;20034;-82
2021/07/11 08:06:31;;;;;;;19.38;10.88;;;20.90;87.60;;;;;;4919870;29;20070;-82
2021/07/11 08:08:57;;;;;;;18.58;10.75;;;20.90;87.50;;;;;;4919092;29;20584;-82
2021/07/11 08:11:23;;;;;;;21.60;12.55;;;20.90;87.40;;;;;;4919426;29;20209;-82
2021/07/11 08:13:49;;;;;;;21.35;12.60;;;20.90;87.40;;;;;;4919830;29;20023;-82
2021/07/11 08:16:15;;;;;;;24.02;12.50;;;20.90;87.30;;;;;;4919328;29;20078;-82
2021/07/11 08:18:41;;;;;;;18.67;10.98;;;20.90;87.40;;;;;;4920048;29;20140;-83
2021/07/11 08:21:07;;;;;;;20.15;10.88;;;20.90;87.20;;;;;;4919796;29;20034;-82
2021/07/11 08:23:33;;;;;;;18.83;10.77;;;20.90;87.10;;;;;;4936313;29;20087;-82
2021/07/11 08:26:00;;;;;;;20.33;13.00;;;20.80;87.20;;;;;;4919326;29;20106;-82
2021/07/11 08:28:26;;;;;;;20.40;11.73;;;20.70;87.40;;;;;;4919287;29;20047;-82
2021/07/11 08:30:52;;;;;;;19.35;11.35;;;20.70;87.40;;;;;;4919916;29;20042;-82
2021/07/11 08:33:17;;;;;;;21.67;11.10;;;20.70;87.50;;;;;;4919867;29;20028;-82
2021/07/11 08:35:43;;;;;;;20.10;11.35;;;20.70;87.60;;;;;;4938639;29;20392;-82
2021/07/11 08:38:09;;;;;;;20.70;10.68;;;20.60;87.50;;;;;;4922290;29;20060;-82
2021/07/11 08:40:35;;;;;;;17.88;10.50;;;20.70;87.60;;;;;;4937039;29;20067;-82
2021/07/11 08:43:07;;;;;;;19.20;10.65;;;20.70;87.40;;;;;;4919523;29;20094;-82
2021/07/11 08:45:34;;;;;;;18.95;10.77;;;20.60;87.40;;;;;;4919646;29;20040;-82
2021/07/11 08:48:01;;;;;;;21.27;11.65;;;20.60;87.40;;;;;;4936513;29;20126;-84
2021/07/11 08:50:28;;;;;;;17.15;9.50;;;20.60;87.40;;;;;;4918517;29;20464;-83
2021/07/11 08:52:55;;;;;;;18.85;10.60;;;20.60;88.00;;;;;;4919387;29;20472;-83
2021/07/11 08:55:23;;;;;;;22.20;12.32;;;20.50;87.30;;;;;;4935584;29;20042;-81
2021/07/11 08:57:57;;;;;;;24.30;11.27;;;20.60;87.30;;;;;;4935921;29;20028;-81
2021/07/11 09:00:26;;;;;;;21.00;10.80;;;20.60;87.10;;;;;;4918432;29;20464;-81
2021/07/11 09:02:51;;;;;;;20.30;10.05;;;20.70;86.90;;;;;;4918998;29;20020;-81
2021/07/11 09:05:31;;;;;;;19.02;10.27;;;20.80;86.60;;;;;;4918304;29;20131;-81
2021/07/11 09:08:05;;;;;;;18.92;10.32;;;20.90;86.40;;;;;;4918744;29;20035;-82
2021/07/11 09:10:34;;;;;;;21.77;11.43;;;21.00;85.90;;;;;;4918267;29;20035;-82
2021/07/11 09:13:00;;;;;;;19.83;10.80;;;21.10;85.60;;;;;;4918730;29;20031;-82
2021/07/11 09:15:34;;;;;;;19.33;11.32;;;21.30;85.40;;;;;;4918241;29;20399;-82
2021/07/11 09:18:01;;;;;;;19.38;10.57;;;21.40;84.90;;;;;;4918750;29;20086;-82
2021/07/11 09:20:27;;;;;;;20.98;11.80;;;21.40;84.80;;;;;;4935065;29;20036;-82
2021/07/11 09:23:01;;;;;;;19.58;10.45;;;21.40;84.60;;;;;;4918540;29;20027;-82
2021/07/11 09:25:27;;;;;;;19.35;10.52;;;21.50;84.50;;;;;;4918025;29;20039;-82
2021/07/11 09:27:54;;;;;;;18.40;9.65;;;21.50;84.30;;;;;;4918526;29;20135;-82
2021/07/11 09:30:19;;;;;;;17.65;9.40;;;21.50;84.20;;;;;;4934854;29;20112;-82
2021/07/11 09:32:49;;;;;;;18.42;10.68;;;21.60;84.00;;;;;;4918742;29;20059;-82
2021/07/11 09:35:22;;;;;;;18.42;10.10;;;21.70;83.60;;;;;;4918276;29;20032;-82
2021/07/11 09:37:53;;;;;;;16.95;10.57;;;21.70;83.50;;;;;;4918274;29;20436;-83
2021/07/11 09:40:22;;;;;;;19.38;11.23;;;21.90;83.30;;;;;;4917822;29;20027;-82
2021/07/11 09:42:51;;;;;;;15.65;9.25;;;22.00;82.90;;;;;;4918420;29;20027;-82
2021/07/11 09:45:19;;;;;;;17.88;9.35;;;22.10;82.50;;;;;;4917859;29;20123;-81
2021/07/11 09:47:47;;;;;;;16.17;9.30;;;22.20;82.20;;;;;;4935748;29;20032;-82
2021/07/11 09:50:20;;;;;;;17.15;9.68;;;22.30;81.80;;;;;;4918127;29;20023;-82
2021/07/11 09:52:49;;;;;;;18.25;9.52;;;22.30;81.60;;;;;;4918258;29;20483;-83
2021/07/11 09:55:20;;;;;;;17.60;10.00;;;22.40;81.40;;;;;;4918009;29;20036;-82
2021/07/11 09:57:50;;;;;;;;;;;22.40;81.50;;;;;;4918441;29;20024;-82
2021/07/11 10:00:47;;;;;;;19.02;9.38;;;22.40;81.50;;;;;;4918011;29;19906;-83
2021/07/11 10:03:15;;;;;;;18.23;10.50;;;22.50;81.10;;;;;;4857628;29;20045;-83
2021/07/11 10:05:42;;;;;;;18.65;10.40;;;22.40;81.00;;;;;;4841690;29;20391;-83
2021/07/11 10:08:08;;;;;;;16.40;9.40;;;22.30;81.10;;;;;;4842101;29;20520;-83
2021/07/11 10:10:36;;;;;;;14.90;7.95;;;22.20;81.40;;;;;;4857196;29;20192;-82
2021/07/11 10:13:04;;;;;;;19.95;10.75;;;22.30;81.50;;;;;;4857458;29;20034;-83
2021/07/11 10:15:32;;;;;;;15.80;9.27;;;22.30;81.40;;;;;;4841363;29;20041;-83
2021/07/11 10:18:01;;;;;;;18.23;9.55;;;22.30;81.30;;;;;;4857710;29;20206;-83
2021/07/11 10:20:32;;;;;;;15.20;8.48;;;22.40;81.00;;;;;;4856964;29;20033;-83
2021/07/11 10:22:59;;;;;;;13.30;9.13;;;22.50;80.90;;;;;;4857425;29;20032;-82
2021/07/11 10:25:26;;;;;;;18.25;10.50;;;22.50;80.70;;;;;;4841298;29;20041;-82
2021/07/11 10:28:15;;;;;;;17.58;10.13;;;22.40;80.60;;;;;;4841604;29;20148;-83
2021/07/11 10:30:44;;;;;;;16.85;8.23;;;22.50;80.60;;;;;;4856446;29;20158;-82
2021/07/11 10:33:13;;;;;;;15.93;9.25;;;22.50;80.40;;;;;;4841983;29;20055;-83
2021/07/11 10:35:59;;;;;;;16.30;7.55;;;22.60;80.00;;;;;;4841262;29;20170;-83
2021/07/11 10:38:34;;;;;;;15.18;8.43;;;22.70;79.50;;;;;;4856316;29;20037;-82
2021/07/11 10:41:16;;;;;;;15.52;8.35;;;22.70;79.30;;;;;;4911389;29;20595;-82
2021/07/11 10:43:45;;;;;;;12.68;7.75;;;22.70;79.30;;;;;;4917028;29;20403;-82
2021/07/11 10:46:12;;;;;;;11.77;7.03;;;22.70;79.30;;;;;;4935170;29;20028;-83
2021/07/11 10:48:39;;;;;;;15.18;7.60;;;22.70;79.20;;;;;;4917454;29;20028;-82
2021/07/11 10:51:05;;;;;;;11.13;6.30;;;22.80;78.80;;;;;;4917596;29;20035;-82
2021/07/11 10:53:36;;;;;;;11.13;6.22;;;22.80;78.70;;;;;;4933793;29;20028;-82
2021/07/11 10:56:05;;;;;;;15.18;8.18;;;22.70;78.50;;;;;;4917599;29;20036;-82
2021/07/11 10:58:39;;;;;;;15.15;8.68;;;22.70;78.50;;;;;;4917100;29;20015;-81
2021/07/11 11:01:19;;;;;;;16.23;8.75;;;22.70;78.40;;;;;;4925386;29;20036;-81
2021/07/11 11:03:47;;;;;;;15.50;8.68;;;22.90;78.40;;;;;;4932044;29;20055;-82
2021/07/11 11:06:18;;;;;;;12.18;7.43;;;23.10;78.10;;;;;;4948172;29;20082;-81
2021/07/11 11:08:45;;;;;;;15.00;8.05;;;23.20;77.40;;;;;;4952184;29;20019;-82
2021/07/11 11:11:10;;;;;;;12.70;7.53;;;23.30;76.80;;;;;;4952401;29;20067;-82
2021/07/11 11:13:37;;;;;;;16.80;9.25;;;23.40;76.40;;;;;;4952231;29;20145;-81
2021/07/11 11:16:22;;;;;;;15.38;9.05;;;23.40;76.20;;;;;;4935334;29;20039;-81
2021/07/11 11:18:52;;;;;;;15.15;8.40;;;23.40;76.20;;;;;;4934571;29;20070;-81
2021/07/11 11:21:21;;;;;;;12.45;6.30;;;23.40;75.90;;;;;;4916548;29;20042;-81
2021/07/11 11:23:53;;;;;;;12.85;7.82;;;23.40;75.90;;;;;;4916227;29;20436;-82
2021/07/11 11:26:20;;;;;;;13.10;7.43;;;23.50;75.70;;;;;;4933304;29;20119;-82
2021/07/11 11:28:47;;;;;;;11.13;6.85;;;23.50;75.50;;;;;;4912714;29;20051;-82
2021/07/11 11:31:20;;;;;;;11.50;6.28;;;23.60;75.00;;;;;;4913177;29;20043;-81
2021/07/11 11:34:15;;;;;;;10.50;5.93;;;23.70;74.70;;;;;;4912631;29;20032;-82
2021/07/11 11:36:42;;;;;;;11.80;6.93;;;23.80;74.40;;;;;;4873940;29;20045;-82
2021/07/11 11:39:15;;;;;;;13.35;7.45;;;24.00;74.10;;;;;;4874485;29;20037;-81
2021/07/11 11:41:41;;;;;;;12.32;6.85;;;24.00;73.90;;;;;;4859387;29;20513;-82
2021/07/11 11:44:09;;;;;;;12.88;7.22;;;24.10;74.00;;;;;;4862141;29;20033;-82
2021/07/11 11:46:35;;;;;;;13.68;7.78;;;24.20;73.60;;;;;;4861828;29;20071;-82
2021/07/11 11:49:15;;;;;;;11.38;6.85;;;24.20;73.30;;;;;;4862238;29;20025;-81
2021/07/11 11:51:48;;;;;;;10.63;6.00;;;24.30;72.80;;;;;;4862227;29;20093;-81
2021/07/11 11:54:25;;;;;;;10.98;6.47;;;24.40;72.40;;;;;;4862807;29;20041;-81
2021/07/11 11:56:51;;;;;;;10.70;6.13;;;24.70;71.90;;;;;;4862714;29;20037;-81
2021/07/11 11:59:18;;;;;;;10.40;6.13;;;24.90;71.10;;;;;;4862679;29;20186;-81
2021/07/11 12:01:43;;;;;;;9.82;6.28;;;25.00;70.60;;;;;;4877641;29;20033;-81
2021/07/11 12:04:17;;;;;;;11.90;6.57;;;25.00;70.30;;;;;;4862579;29;20032;-81
2021/07/11 12:06:48;;;;;;;11.25;6.00;;;24.90;70.00;;;;;;4846618;29;20056;-81
2021/07/11 12:09:16;;;;;;;9.80;6.90;;;24.80;70.20;;;;;;4878113;29;20367;-81
2021/07/11 12:11:42;;;;;;;10.43;6.32;;;24.80;70.20;;;;;;4861884;29;20118;-81
2021/07/11 12:14:16;;;;;;;10.07;5.97;;;24.70;70.40;;;;;;4908528;29;20036;-82
2021/07/11 12:16:43;;;;;;;8.75;5.53;;;24.70;70.20;;;;;;4915867;29;20032;-81
2021/07/11 12:19:10;;;;;;;9.32;5.30;;;24.70;70.20;;;;;;4917525;29;20099;-81
2021/07/11 12:21:43;;;;;;;10.30;5.80;;;24.80;70.00;;;;;;4915717;29;20066;-81
2021/07/11 12:24:16;;;;;;;8.75;5.20;;;24.80;69.60;;;;;;4917857;29;20095;-81
2021/07/11 12:26:50;;;;;;;8.75;5.68;;;24.90;69.40;;;;;;4918334;29;20056;-81
2021/07/11 12:29:25;;;;;;;8.75;5.63;;;25.00;69.20;;;;;;4936547;29;20023;-81
2021/07/11 12:32:00;;;;;;;8.95;5.55;;;25.10;68.80;;;;;;4936062;29;20460;-81
2021/07/11 12:34:26;;;;;;;11.57;5.85;;;25.10;68.80;;;;;;4919575;29;20059;-81
2021/07/11 12:36:59;;;;;;;7.43;4.80;;;25.20;68.70;;;;;;4919264;29;20032;-81
2021/07/11 12:39:25;;;;;;;9.70;5.22;;;25.20;68.60;;;;;;4919467;29;20109;-81
2021/07/11 12:41:52;;;;;;;9.07;5.28;;;25.30;68.40;;;;;;4918709;29;20551;-81